Terminal Aerodrome Forecast
Issued by NWS Jackson, KY

Home | Current Version | Previous Version | Text Only | Print | Product List | Glossary On
Versions: 1 2 3 4 5 6 7 8 9 10 11 12 13 14 15 16
566
FTUS43 KJKL 160520
TAFLOZ
TAF
KLOZ 160520Z 1606/1706 VRB03KT 1/2SM FG OVC002
     FM161500 VRB03KT P6SM OVC008
     FM161600 17004KT P6SM OVC025
     FM161700 19006KT P6SM BKN050
     FM170000 17004KT P6SM VCSH BKN050=

USA.gov is the U.S. government's official web portal to all federal, state and local government web resources and services.